Flight Track Log - Related Links

Times and Time Zones

All times are in EDT time to prevent confusion due to time zone crossing. See the AWI3786 flight status page for this flight to view local times or setup timezone preferences in your user account.

Time Position Orientation Groundspeed Altitude Reporting Facility
EDT Latitude Longitude Course Direction KTS MPH feet Rate Location/Type
Sun 09:23:00 PM 39.0867 -77.1547 339° North  Level Estimated
Sun 09:24:00 PM 39.1650 -77.1939 339° North  Level Estimated
Sun 09:25:00 PM 39.2432 -77.2332 339° North  Level Estimated
Sun 09:26:00 PM 39.3214 -77.2726 339° North  Level Estimated
Sun 09:27:00 PM 39.3997 -77.3120 339° North  Level Estimated
Sun 09:28:00 PM 39.4779 -77.3516 339° North  Level Estimated
Sun 09:29:00 PM 39.5560 -77.3912 339° North  Level Estimated
Sun 09:30:00 PM 39.6342 -77.4309 339° North  Level Estimated
Sun 09:31:00 PM 39.7124 -77.4707 339° North  Level Estimated
Sun 09:32:00 PM 39.7905 -77.5106 339° North  Level Estimated
Sun 09:33:00 PM 39.8686 -77.5506 339° North  Level Estimated
Sun 09:34:00 PM 39.9468 -77.5907 339° North  Level Estimated
Sun 09:35:00 PM 40.0248 -77.6309 339° North  Level Estimated
Sun 09:36:00 PM 40.1029 -77.6712 338° Northwest  Level Estimated
Sun 09:37:00 PM 40.1810 -77.7115 338° Northwest  Level Estimated
Sun 09:38:00 PM 40.2591 -77.7520 338° Northwest  Level Estimated
Sun 09:39:00 PM 40.3371 -77.7925 338° Northwest  Level Estimated
Sun 09:40:00 PM 40.4151 -77.8332 338° Northwest  Level Estimated
Sun 09:41:00 PM 40.4932 -77.8739 338° Northwest  Level Estimated
Sun 09:42:00 PM 40.5712 -77.9147 338° Northwest  Level Estimated
Sun 09:43:00 PM 40.6492 -77.9557 338° Northwest  Level Estimated
Sun 09:44:00 PM 40.7271 -77.9967 338° Northwest  Level Estimated
Sun 09:45:00 PM 40.8051 -78.0378 338° Northwest  Level Estimated
Sun 09:46:00 PM 40.8830 -78.0790 338° Northwest  Level Estimated
Sun 09:47:00 PM 40.9609 -78.1203 338° Northwest  Level Estimated
Sun 09:48:00 PM 41.0389 -78.1617 338° Northwest  Level Estimated
Sun 09:49:00 PM 41.1168 -78.2032 338° Northwest  Level Estimated
Sun 09:50:00 PM 41.1946 -78.2449 338° Northwest  Level Estimated
Sun 09:51:00 PM 41.2725 -78.2866 338° Northwest  Level Estimated
Sun 09:52:00 PM 41.3504 -78.3283 338° Northwest  Level Estimated
Sun 09:53:00 PM 41.4282 -78.3702 338° Northwest  Level Estimated
Sun 09:54:00 PM 41.5060 -78.4122 338° Northwest  Level Estimated
Sun 09:55:00 PM 41.5838 -78.4544 338° Northwest  Level Estimated
Sun 09:56:00 PM 41.6616 -78.4966 338° Northwest  Level Estimated
Sun 09:57:00 PM 41.7394 -78.5389 338° Northwest  Level Estimated
Sun 09:58:00 PM 41.8172 -78.5813 338° Northwest  Level Estimated
Sun 09:59:00 PM 41.8949 -78.6238 338° Northwest  Level Estimated
Sun 10:00:00 PM 41.9726 -78.6664 338° Northwest  Level Estimated
Sun 10:01:00 PM 42.0504 -78.7092 338° Northwest  Level Estimated
Sun 10:02:00 PM 42.1281 -78.7520 338° Northwest  Level Estimated
Sun 10:03:00 PM 42.2057 -78.7949 338° Northwest  Level Estimated
Sun 10:04:00 PM 42.2834 -78.8380 338° Northwest  Level Estimated
Sun 10:05:00 PM 42.3610 -78.8811 338° Northwest  Level Estimated
Sun 10:06:00 PM 42.4387 -78.9243 338° Northwest  Level Estimated
Sun 10:07:00 PM 42.5163 -78.9677 338° Northwest  Level Estimated
Sun 10:08:00 PM 42.5939 -79.0112 338° Northwest  Level Estimated
Sun 10:09:00 PM 42.6715 -79.0547 338° Northwest  Level Estimated
Sun 10:10:00 PM 42.7491 -79.0984 338° Northwest  Level Estimated
Sun 10:11:00 PM 42.8266 -79.1422 338° Northwest  Level Estimated
Sun 10:12:00 PM 42.9041 -79.1861 337° Northwest  Level Estimated
Sun 10:13:00 PM 42.9817 -79.2301 337° Northwest  Level Estimated
Sun 10:14:00 PM 43.0592 -79.2743 337° Northwest  Level Estimated
Sun 10:15:00 PM 43.1367 -79.3185 337° Northwest  Level Estimated
Sun 10:16:00 PM 43.2141 -79.3628 337° Northwest  Level Estimated
Sun 10:17:00 PM 43.2916 -79.4073 337° Northwest  Level Estimated
Sun 10:18:00 PM 43.3690 -79.4519 337° Northwest  Level Estimated
Sun 10:19:00 PM 43.4464 -79.4966 337° Northwest  Level Estimated
Sun 10:20:00 PM 43.5238 -79.5414 337° Northwest  Level Estimated
Sun 10:21:00 PM 43.6012 -79.5863 337° Northwest  Level Estimated
Sun 10:22:00 PM 43.6772 -79.6306 337° Northwest  Level Estimated
Sun 10:23:00 PM 43.6772 -79.6306 44° Northeast  Level Estimated
Sun 10:24:00 PM 43.6772 -79.6306 44° Northeast  Level Estimated
Sun 10:25:00 PM 43.6772 -79.6306 44° Northeast  Level Estimated
Sun 10:26:00 PM 43.6772 -79.6306 44° Northeast  Level Estimated
Sun 10:27:00 PM 43.6772 -79.6306 44° Northeast  Level Estimated
Sun 10:28:00 PM 43.6772 -79.6306 44° Northeast  Level Estimated
Sun 10:29:00 PM 43.6772 -79.6306 44° Northeast  Level Estimated
Sun 10:30:00 PM 43.6772 -79.6306 44° Northeast  Level Estimated
Sun 10:31:00 PM 43.6772 -79.6306 44° Northeast  Level Estimated
Sun 10:32:00 PM 43.6772 -79.6306 44° Northeast  Level Estimated
Sun 10:33:00 PM 43.6772 -79.6306 44° Northeast  Level Estimated
Sun 10:34:00 PM 43.6772 -79.6306 44° Northeast  Level Estimated
Sun 10:35:00 PM 43.6772 -79.6306 44° Northeast  Level Estimated

Login

Don't have an account? Register now (free) for customized features, flight alerts, and more!